Terminal Aerodrome Forecast
Issued by NWS

Home | Current Version | Previous Version | Graphics & Text | Print | Product List | Glossary On
Versions: 1 2 3 4 5 6 7 8 9 10 11 12 13 14 15 16 17 18
000
FTUS42 KMHX 180920 AAA
TAFPGV
TAF AMD
KPGV 180920Z 1809/1906 VRB03KT P6SM VCSH BKN050
     FM181000 VRB03KT P6SM VCTS BKN020CB
     FM181400 20005KT P6SM VCTS OVC050CB
      AMD LTD TO CLD VIS AND WIND=

USA.gov is the U.S. government's official web portal to all federal, state and local government web resources and services.